KLOL/LOL METAR and TAF weather

Enter ICAO airport designator
Station Type Date Time Source
KLOL METAR 2020/06/01 16:53 UTC NOAA

KLOL 011653Z AUTO 05004KT 10SM FEW120 22/04 A3005 RMK AO2 SLP140 T02220044


Station Type Date Time Source
KLOL Decoded METAR 2020/06/01 16:53 UTC NOAA

LOVELOCK DERBY FIELD, NV, United States (KLOL) 40-04N 118-34W 1189M
Jun 01, 2020 - 12:53 PM EDT / 2020.06.01 1653 UTC
Wind: from the NE (050 degrees) at 5 MPH (4 KT):0
Visibility: 10 mile(s):0
Sky conditions: mostly clear
Temperature: 72.0 F (22.2 C)
Dew Point: 39.9 F (4.4 C)
Relative Humidity: 31%
Pressure (altimeter): 30.05 in. Hg (1017 hPa)
ob: KLOL 011653Z AUTO 05004KT 10SM FEW120 22/04 A3005 RMK AO2 SLP140 T02220044
cycle: 17

Station Type Date Time Source
KLOL TAF 2010/01/05 05:22 UTC NOAA

TAF KLOL 050522Z 0506/0606 00000KT 1/4SM FZFG VV001
FM052000 VRB03KT 3SM BR OVC002
AMD NOT SKED

Example: see airport list